Time;durP1;ratioP1;P1;durP2;ratioP2;P2;SDS_P1;SDS_P2;PMS_P1;PMS_P2;Temp;Humidity;BMP_temperature;BMP_pressure;BME280_temperature;BME280_humidity;BME280_pressure;Samples;Min_cycle;Max_cycle;Signal;HPM_P1;HPM_P2
2021/09/14 00:00:30;;;;;;;9.00;6.00;;;;;;;12.15;50.03;95612.13;4970895;28;20039;-60
2021/09/14 00:02:56;;;;;;;6.90;5.95;;;;;;;12.20;50.12;95614.19;4957668;28;20686;-60
2021/09/14 00:05:21;;;;;;;10.32;6.32;;;;;;;12.20;50.15;95610.72;4971184;28;20038;-60
2021/09/14 00:07:46;;;;;;;12.02;6.80;;;;;;;12.16;50.37;95604.91;4970376;28;20046;-60
2021/09/14 00:10:12;;;;;;;9.02;5.72;;;;;;;12.27;49.17;95608.94;4966086;28;20428;-60
2021/09/14 00:12:38;;;;;;;6.47;5.45;;;;;;;12.27;49.23;95600.91;4966437;28;20101;-60
2021/09/14 00:15:04;;;;;;;9.10;6.72;;;;;;;12.07;50.72;95598.88;4960378;28;20035;-60
2021/09/14 00:17:30;;;;;;;7.95;6.18;;;;;;;12.15;49.75;95595.25;4967631;28;20031;-60
2021/09/14 00:19:55;;;;;;;8.55;5.45;;;;;;;12.09;49.94;95596.84;4969831;28;20106;-60
2021/09/14 00:22:21;;;;;;;5.95;4.65;;;;;;;12.17;49.54;95603.09;4969310;28;20038;-60
2021/09/14 00:24:46;;;;;;;10.00;6.10;;;;;;;12.06;49.99;95597.22;4969830;28;20043;-60
2021/09/14 00:27:11;;;;;;;8.68;6.03;;;;;;;12.00;50.65;95598.75;4970046;28;20062;-60
2021/09/14 00:29:37;;;;;;;9.93;6.07;;;;;;;12.08;50.14;95595.19;4970075;28;20472;-60
2021/09/14 00:32:03;;;;;;;10.98;5.88;;;;;;;12.07;50.26;95590.84;4968075;28;20042;-60
2021/09/14 00:34:28;;;;;;;7.82;5.50;;;;;;;12.07;50.15;95590.84;4969337;28;20035;-60
2021/09/14 00:36:53;;;;;;;7.93;5.53;;;;;;;12.09;49.45;95586.16;4970647;28;20077;-60
2021/09/14 00:39:19;;;;;;;8.43;6.45;;;;;;;12.06;50.27;95583.00;4969674;28;20027;-60
2021/09/14 00:41:44;;;;;;;10.13;7.38;;;;;;;12.02;50.13;95585.22;4970436;28;20031;-60
2021/09/14 00:44:10;;;;;;;8.25;6.43;;;;;;;11.93;50.74;95581.84;4968021;28;20042;-60
2021/09/14 00:46:35;;;;;;;10.70;7.43;;;;;;;11.83;51.53;95578.66;4962562;28;20033;-60
2021/09/14 00:49:01;;;;;;;9.00;6.13;;;;;;;11.96;50.33;95576.13;4969460;28;20639;-60
2021/09/14 00:51:27;;;;;;;6.97;5.57;;;;;;;12.01;49.93;95567.59;4969594;28;20051;-60
2021/09/14 00:53:52;;;;;;;11.88;7.10;;;;;;;11.88;51.50;95566.41;4983149;28;20031;-60
2021/09/14 00:56:18;;;;;;;8.25;5.93;;;;;;;11.96;50.50;95568.13;4969503;28;20042;-60
2021/09/14 00:58:43;;;;;;;10.65;6.20;;;;;;;12.00;50.21;95558.75;4969580;28;20440;-60
2021/09/14 01:01:09;;;;;;;7.63;5.93;;;;;;;12.02;49.92;95555.88;4970024;28;20039;-60
2021/09/14 01:03:34;;;;;;;9.23;7.00;;;;;;;11.90;50.86;95561.72;4969744;28;20058;-60
2021/09/14 01:06:01;;;;;;;9.70;6.70;;;;;;;11.88;51.10;95549.56;4970173;28;20035;-60
2021/09/14 01:08:26;;;;;;;8.13;6.53;;;;;;;11.96;50.57;95548.63;4967977;28;20077;-60
2021/09/14 01:10:51;;;;;;;11.57;7.97;;;;;;;11.89;51.25;95544.06;4967667;28;20449;-60
2021/09/14 01:13:17;;;;;;;10.20;6.85;;;;;;;12.00;50.77;95540.06;4951957;28;20053;-60
2021/09/14 01:15:42;;;;;;;9.05;6.30;;;;;;;12.01;50.41;95541.72;4959830;28;20592;-60
2021/09/14 01:18:08;;;;;;;10.27;7.32;;;;;;;12.01;50.27;95538.22;4969451;28;20656;-60
2021/09/14 01:20:33;;;;;;;12.32;8.00;;;;;;;12.04;50.13;95543.19;4968924;28;20126;-60
2021/09/14 01:22:59;;;;;;;7.88;6.28;;;;;;;12.10;49.66;95545.13;4969273;28;20049;-60
2021/09/14 01:25:25;;;;;;;6.80;5.20;;;;;;;12.15;49.38;95541.91;4968794;28;20062;-60
2021/09/14 01:27:51;;;;;;;10.75;6.90;;;;;;;12.14;49.46;95540.25;4969166;28;20129;-60
2021/09/14 01:30:18;;;;;;;10.90;7.22;;;;;;;12.00;49.83;95537.41;4969596;28;20039;-60
2021/09/14 01:32:51;;;;;;;7.28;5.80;;;;;;;11.93;50.44;95528.50;4968769;28;20098;-60
2021/09/14 01:35:27;;;;;;;7.93;5.88;;;;;;;11.90;50.15;95535.03;4969048;28;20038;-60
2021/09/14 01:37:53;;;;;;;8.32;6.53;;;;;;;11.91;50.16;95541.22;4969234;28;20054;-60
2021/09/14 01:40:19;;;;;;;12.98;8.07;;;;;;;11.76;51.16;95533.22;4968760;28;20093;-60
2021/09/14 01:42:45;;;;;;;10.10;7.03;;;;;;;11.71;51.36;95530.31;4968022;28;20031;-60
2021/09/14 01:45:11;;;;;;;7.88;5.85;;;;;;;11.77;50.71;95541.03;4969152;28;20460;-60
2021/09/14 01:47:36;;;;;;;11.43;5.50;;;;;;;11.87;50.27;95537.25;4968819;28;20121;-60
2021/09/14 01:50:03;;;;;;;6.60;5.40;;;;;;;11.92;50.08;95534.00;4969621;28;20062;-61
2021/09/14 01:52:31;;;;;;;9.40;6.82;;;;;;;11.94;50.03;95537.34;4968672;28;20043;-60
2021/09/14 01:54:56;;;;;;;6.30;4.70;;;;;;;11.98;49.72;95535.94;4969147;28;20481;-60
2021/09/14 01:57:29;;;;;;;8.07;5.53;;;;;;;11.96;49.70;95528.13;4961581;28;20035;-60
2021/09/14 01:59:56;;;;;;;8.70;6.97;;;;;;;11.91;49.86;95538.53;4968659;28;20031;-60
2021/09/14 02:30:08;;;;;;;7.97;5.57;;;;;;;11.85;50.11;95542.78;4968993;28;20130;-60
2021/09/14 02:59:08;;;;;;;10.23;6.68;;;;;;;11.75;51.00;95519.09;4971310;28;20050;-60
2021/09/14 03:01:33;;;;;;;9.45;5.93;;;;;;;11.77;50.91;95516.22;4972167;28;20539;-60
2021/09/14 03:03:59;;;;;;;8.25;5.93;;;;;;;11.81;50.73;95514.84;4971328;28;20043;-60
2021/09/14 03:06:24;;;;;;;8.45;5.25;;;;;;;11.74;50.87;95519.28;4972167;28;20030;-60
2021/09/14 03:08:50;;;;;;;6.63;5.30;;;;;;;11.77;50.58;95513.56;4970945;28;20614;-60
2021/09/14 03:11:16;;;;;;;6.88;5.30;;;;;;;11.82;50.29;95516.47;4967856;28;20042;-60
2021/09/14 03:13:42;;;;;;;10.02;5.95;;;;;;;11.83;50.36;95515.47;4971684;28;20479;-60
2021/09/14 03:16:09;;;;;;;7.60;5.28;;;;;;;11.83;50.35;95515.47;4962429;28;20046;-60
2021/09/14 03:18:35;;;;;;;6.65;4.97;;;;;;;11.83;50.17;95506.66;4971029;28;20117;-60
2021/09/14 03:21:01;;;;;;;6.90;4.70;;;;;;;11.87;49.89;95511.41;4971672;28;20431;-60
2021/09/14 03:23:27;;;;;;;7.03;4.90;;;;;;;11.86;49.80;95516.91;4971440;28;20460;-60
2021/09/14 03:25:52;;;;;;;6.13;4.40;;;;;;;11.90;49.97;95508.34;4971686;28;20038;-60
2021/09/14 03:28:18;;;;;;;8.07;4.57;;;;;;;11.91;50.18;95511.88;4971240;28;20039;-60
2021/09/14 03:30:44;;;;;;;7.90;5.25;;;;;;;11.84;49.98;95508.28;4971089;28;20042;-60
2021/09/14 03:33:10;;;;;;;5.65;4.68;;;;;;;11.85;49.63;95493.94;4971755;28;20047;-60
2021/09/14 03:35:35;;;;;;;10.63;5.00;;;;;;;11.84;49.80;95505.63;4970985;28;20419;-60
2021/09/14 03:38:01;;;;;;;5.80;4.55;;;;;;;11.86;49.66;95500.91;4969727;28;20089;-60
2021/09/14 03:40:26;;;;;;;7.18;4.75;;;;;;;11.82;49.69;95499.63;4970839;28;20066;-60
2021/09/14 03:42:52;;;;;;;6.72;4.25;;;;;;;11.84;49.65;95500.28;4971035;28;20042;-60
2021/09/14 03:45:17;;;;;;;5.40;4.15;;;;;;;11.83;49.55;95503.97;4971175;28;20023;-60
2021/09/14 03:47:43;;;;;;;5.38;4.35;;;;;;;11.76;50.22;95491.38;4969957;28;20042;-60
2021/09/14 03:50:09;;;;;;;6.57;4.65;;;;;;;11.77;49.72;95492.22;4971089;28;20038;-60
2021/09/14 03:52:34;;;;;;;6.97;5.10;;;;;;;11.60;50.70;95492.44;4970595;28;20046;-60
2021/09/14 03:54:59;;;;;;;6.53;5.43;;;;;;;11.45;51.97;95492.47;4970540;28;20319;-60
2021/09/14 03:57:25;;;;;;;6.20;5.00;;;;;;;11.56;51.06;95496.50;4971013;28;20404;-60
2021/09/14 03:59:50;;;;;;;8.52;4.60;;;;;;;11.66;50.94;95485.53;4970729;28;20415;-60
2021/09/14 04:10:09;;;;;;;7.70;5.90;;;;;;;11.51;52.49;95485.56;4969942;28;20045;-60
2021/09/14 04:12:35;;;;;;;11.88;6.20;;;;;;;11.48;53.64;95483.28;4970012;28;20046;-60
2021/09/14 04:15:00;;;;;;;9.13;6.50;;;;;;;11.40;53.47;95481.56;4962520;28;20548;-60
2021/09/14 04:17:25;;;;;;;9.05;6.22;;;;;;;11.54;52.72;95479.88;4970378;28;20238;-60
2021/09/14 04:19:51;;;;;;;6.25;5.03;;;;;;;11.69;51.88;95477.16;4970176;28;20042;-60
2021/09/14 04:22:16;;;;;;;7.88;5.50;;;;;;;11.72;51.79;95470.59;4970462;28;20070;-60
2021/09/14 04:24:42;;;;;;;8.00;5.47;;;;;;;11.69;52.11;95465.69;4969779;28;20050;-60
2021/09/14 04:27:07;;;;;;;9.35;5.43;;;;;;;11.67;52.00;95467.69;4970135;28;20045;-60
2021/09/14 04:29:33;;;;;;;6.75;5.22;;;;;;;11.68;51.68;95466.66;4970614;28;20530;-60
2021/09/14 04:31:58;;;;;;;8.00;5.30;;;;;;;11.82;51.00;95472.97;4970238;28;20472;-60
2021/09/14 04:34:24;;;;;;;7.15;5.38;;;;;;;11.75;51.42;95470.25;4970644;28;20051;-60
2021/09/14 04:36:49;;;;;;;7.53;5.40;;;;;;;11.56;52.18;95469.81;4963530;28;20031;-60
2021/09/14 04:39:15;;;;;;;7.32;5.88;;;;;;;11.58;51.93;95473.16;4963617;28;20144;-60
2021/09/14 04:41:40;;;;;;;10.40;6.25;;;;;;;11.60;52.56;95473.75;4970245;28;20427;-60
2021/09/14 04:44:05;;;;;;;7.30;5.65;;;;;;;11.54;52.85;95471.88;4969971;28;20046;-60
2021/09/14 04:46:31;;;;;;;6.53;5.00;;;;;;;11.63;52.03;95472.59;4969474;28;20441;-60
2021/09/14 04:48:56;;;;;;;7.50;5.40;;;;;;;11.72;51.46;95465.28;4970363;28;20026;-60
2021/09/14 04:51:22;;;;;;;5.93;4.75;;;;;;;11.84;50.85;95465.63;4969685;28;20039;-60
2021/09/14 04:53:47;;;;;;;6.22;4.75;;;;;;;11.85;50.88;95464.59;4970137;28;20038;-60
2021/09/14 04:56:13;;;;;;;8.43;5.50;;;;;;;11.82;51.08;95468.47;4969213;28;20054;-60
2021/09/14 04:58:40;;;;;;;7.22;5.57;;;;;;;11.80;51.54;95467.81;4963328;28;20097;-60
2021/09/14 05:01:05;;;;;;;7.43;5.30;;;;;;;11.90;50.45;95462.19;4969741;28;20039;-60
2021/09/14 05:03:31;;;;;;;8.32;5.45;;;;;;;11.82;51.09;95459.63;4975098;28;20073;-60
2021/09/14 05:05:56;;;;;;;6.78;4.55;;;;;;;11.90;50.45;95464.88;4969516;28;20515;-60
2021/09/14 05:08:22;;;;;;;5.78;4.32;;;;;;;11.99;50.16;95463.72;4969404;28;20069;-60
2021/09/14 05:10:48;;;;;;;8.63;5.20;;;;;;;12.08;49.65;95460.94;4964938;28;20461;-60
2021/09/14 05:13:13;;;;;;;7.72;4.70;;;;;;;12.07;49.65;95457.44;4969878;28;20090;-60
2021/09/14 05:15:39;;;;;;;7.95;5.35;;;;;;;12.06;50.12;95449.59;4961378;28;20047;-60
2021/09/14 05:18:10;;;;;;;7.22;4.90;;;;;;;12.03;50.08;95448.97;4969295;28;20038;-60
2021/09/14 05:20:36;;;;;;;7.95;4.72;;;;;;;12.06;49.88;95453.13;4969222;28;20615;-60
2021/09/14 05:23:15;;;;;;;7.40;5.28;;;;;;;11.99;50.31;95446.88;4969744;28;20125;-60
2021/09/14 05:25:41;;;;;;;7.75;4.50;;;;;;;12.08;49.92;95448.44;4970306;28;20484;-60
2021/09/14 05:28:07;;;;;;;8.43;5.45;;;;;;;12.08;50.17;95448.44;4967540;28;20452;-60
2021/09/14 05:30:32;;;;;;;7.18;5.30;;;;;;;12.11;50.00;95445.38;4969264;28;20031;-60
2021/09/14 05:32:58;;;;;;;9.40;5.40;;;;;;;12.09;50.50;95450.09;4967812;28;20032;-60
2021/09/14 05:35:25;;;;;;;7.97;5.60;;;;;;;11.95;51.36;95445.59;4967837;28;20094;-60
2021/09/14 05:37:51;;;;;;;6.07;4.90;;;;;;;12.15;50.85;95440.50;4968238;28;20396;-60
2021/09/14 05:40:16;;;;;;;7.45;4.80;;;;;;;12.30;50.65;95437.72;4969132;28;20046;-60
2021/09/14 05:42:42;;;;;;;6.07;4.55;;;;;;;12.45;50.50;95445.66;4968942;28;20393;-60
2021/09/14 05:45:07;;;;;;;7.90;4.50;;;;;;;12.46;50.62;95444.63;4968051;28;20034;-60
2021/09/14 05:47:33;;;;;;;6.70;4.57;;;;;;;12.57;50.66;95442.47;4968336;28;20114;-60
2021/09/14 05:50:00;;;;;;;9.07;5.88;;;;;;;12.70;50.30;95439.03;4968879;28;20125;-60
2021/09/14 05:52:26;;;;;;;8.40;4.85;;;;;;;12.84;50.42;95443.44;4968387;28;20571;-60
2021/09/14 05:54:51;;;;;;;6.80;4.78;;;;;;;13.14;49.72;95445.88;4968229;28;20117;-60
2021/09/14 05:57:17;;;;;;;8.55;6.38;;;;;;;13.21;49.33;95451.25;4962723;28;20031;-60
2021/09/14 05:59:42;;;;;;;6.57;4.75;;;;;;;13.38;49.32;95454.41;4968604;28;20372;-60
2021/09/14 06:02:08;;;;;;;6.38;5.07;;;;;;;13.66;48.78;95455.31;4968729;28;20041;-60
2021/09/14 06:04:33;;;;;;;5.28;4.05;;;;;;;13.84;48.04;95457.44;4968692;28;20353;-60
2021/09/14 06:06:59;;;;;;;5.55;4.10;;;;;;;13.99;48.24;95457.28;4968166;28;20053;-60
2021/09/14 06:09:24;;;;;;;5.40;3.75;;;;;;;14.16;47.70;95452.34;4968901;28;20043;-60
2021/09/14 06:11:49;;;;;;;7.35;3.80;;;;;;;14.32;47.79;95450.31;4966304;28;20043;-60
2021/09/14 06:14:15;;;;;;;6.82;3.65;;;;;;;14.48;48.04;95448.25;4970981;28;20047;-60
2021/09/14 06:16:40;;;;;;;3.85;3.30;;;;;;;14.63;47.15;95448.00;4972636;28;20038;-60
2021/09/14 06:19:06;;;;;;;6.53;3.60;;;;;;;14.70;47.31;95446.16;4965386;28;20586;-60
2021/09/14 06:21:37;;;;;;;5.22;3.50;;;;;;;14.87;46.80;95451.91;4969396;28;20087;-61
2021/09/14 06:24:03;;;;;;;5.38;3.67;;;;;;;15.06;46.57;95458.25;4971647;28;20584;-61
2021/09/14 06:26:28;;;;;;;6.72;3.53;;;;;;;15.21;46.08;95460.69;4973007;28;20198;-61
2021/09/14 06:28:53;;;;;;;6.35;3.45;;;;;;;15.34;45.86;95459.81;4972200;28;20365;-61
2021/09/14 06:31:20;;;;;;;4.50;4.05;;;;;;;15.51;45.67;95467.38;4972049;28;20590;-61
2021/09/14 06:33:45;;;;;;;5.80;3.58;;;;;;;15.72;45.36;95462.78;4972756;28;20070;-61
2021/09/14 06:36:11;;;;;;;9.90;7.78;;;;;;;15.84;44.83;95463.72;4963886;28;20603;-61
2021/09/14 06:38:37;;;;;;;10.10;7.22;;;;;;;15.99;44.73;95466.13;4958198;28;20027;-61
2021/09/14 06:41:03;;;;;;;9.80;7.13;;;;;;;16.18;44.20;95468.88;4969212;28;20106;-61
2021/09/14 06:43:29;;;;;;;23.05;18.95;;;;;;;16.38;44.10;95467.94;4968694;28;20047;-61
2021/09/14 06:45:54;;;;;;;8.60;6.65;;;;;;;16.54;43.73;95471.13;4968933;28;20045;-61
2021/09/14 06:48:20;;;;;;;10.32;8.02;;;;;;;16.66;43.72;95466.69;4967176;28;20447;-61
2021/09/14 06:50:45;;;;;;;8.90;5.65;;;;;;;16.88;43.75;95467.09;4968663;28;20057;-61
2021/09/14 06:53:12;;;;;;;5.43;3.88;;;;;;;17.09;43.36;95462.31;4968739;28;20031;-61
2021/09/14 06:55:37;;;;;;;5.70;4.85;;;;;;;17.25;42.86;95460.13;4968036;28;20045;-61
2021/09/14 06:58:03;;;;;;;7.28;5.15;;;;;;;17.38;42.67;95464.53;4966829;28;20051;-61
2021/09/14 07:00:28;;;;;;;14.90;10.00;;;;;;;17.46;42.45;95466.91;4963124;28;20109;-61
2021/09/14 07:02:54;;;;;;;12.88;8.82;;;;;;;17.61;42.19;95476.47;4968165;28;20110;-61
2021/09/14 07:05:19;;;;;;;6.80;4.35;;;;;;;17.77;42.22;95475.84;4967862;28;20046;-61
2021/09/14 07:07:45;;;;;;;8.77;6.40;;;;;;;17.98;41.37;95470.22;4966510;28;20148;-61
2021/09/14 07:10:11;;;;;;;4.78;3.55;;;;;;;18.17;41.50;95474.47;4963230;28;20086;-61
2021/09/14 07:12:36;;;;;;;5.72;3.65;;;;;;;18.33;41.03;95474.88;4966949;28;20054;-61
2021/09/14 07:15:03;;;;;;;7.88;5.13;;;;;;;18.39;40.75;95476.63;4960655;28;20051;-61
2021/09/14 07:17:29;;;;;;;5.35;3.40;;;;;;;18.56;40.42;95471.38;4968410;28;20073;-61
2021/09/14 07:19:54;;;;;;;16.40;8.88;;;;;;;18.69;40.29;95464.97;4967243;28;20078;-61
2021/09/14 07:22:20;;;;;;;9.52;5.95;;;;;;;18.81;40.20;95464.97;4967479;28;20796;-61
2021/09/14 07:24:45;;;;;;;6.47;5.07;;;;;;;19.00;40.42;95462.13;4967497;28;20046;-61
2021/09/14 07:27:11;;;;;;;10.27;7.60;;;;;;;19.08;39.59;95469.88;4967746;28;20057;-61
2021/09/14 07:29:36;;;;;;;10.90;7.60;;;;;;;19.16;40.10;95467.88;4967761;28;20202;-61
2021/09/14 07:32:03;;;;;;;9.45;6.05;;;;;;;19.33;39.20;95463.41;4968197;28;20106;-61
2021/09/14 07:34:29;;;;;;;5.75;3.00;;;;;;;19.51;38.90;95464.31;4967936;28;20390;-61
2021/09/14 07:36:55;;;;;;;8.60;5.95;;;;;;;19.67;38.69;95467.31;4968668;28;20058;-61
2021/09/14 07:39:20;;;;;;;6.80;5.97;;;;;;;19.67;38.86;95470.00;4967144;28;20141;-61
2021/09/14 07:41:46;;;;;;;21.88;14.82;;;;;;;19.70;37.76;95469.53;4968300;28;20038;-61
2021/09/14 07:44:11;;;;;;;11.40;7.55;;;;;;;19.87;38.58;95474.16;4967688;28;20043;-61
2021/09/14 07:46:36;;;;;;;24.42;18.13;;;;;;;19.78;37.83;95471.03;4967957;28;20042;-61
2021/09/14 07:49:02;;;;;;;7.70;4.80;;;;;;;20.08;38.05;95470.81;4967406;28;20039;-61
2021/09/14 07:51:29;;;;;;;16.92;13.38;;;;;;;20.18;37.34;95469.34;4967313;28;20162;-61
2021/09/14 07:53:54;;;;;;;7.22;3.15;;;;;;;20.26;38.17;95474.34;4967923;28;20611;-61
2021/09/14 07:56:20;;;;;;;14.32;8.70;;;;;;;20.44;38.13;95472.47;4955572;28;20126;-61
2021/09/14 07:58:45;;;;;;;28.98;21.13;;;;;;;20.57;36.54;95471.34;4962227;28;20038;-61
2021/09/14 08:01:10;;;;;;;9.25;5.35;;;;;;;20.75;37.20;95473.00;4967315;28;20349;-61
2021/09/14 08:03:36;;;;;;;22.60;16.85;;;;;;;20.73;36.70;95464.31;4958922;28;20543;-61
2021/09/14 08:06:01;;;;;;;16.80;13.02;;;;;;;20.77;36.33;95465.44;4949798;28;20781;-61
2021/09/14 08:08:27;;;;;;;5.50;4.05;;;;;;;20.99;36.28;95456.56;4954986;28;20047;-61
2021/09/14 08:10:52;;;;;;;25.65;18.63;;;;;;;20.82;35.32;95456.59;4959437;28;20054;-61
2021/09/14 08:13:18;;;;;;;11.05;8.77;;;;;;;20.98;36.18;95468.47;4965420;28;20455;-61
2021/09/14 08:15:43;;;;;;;22.55;15.80;;;;;;;21.06;35.72;95461.78;4965057;28;20042;-61
2021/09/14 08:18:09;;;;;;;31.50;22.50;;;;;;;20.98;35.81;95463.06;4965698;28;20116;-61
2021/09/14 08:20:34;;;;;;;19.17;14.68;;;;;;;21.10;35.62;95465.63;4964068;28;20050;-60
2021/09/14 08:23:00;;;;;;;46.38;34.35;;;;;;;20.98;35.58;95463.06;4965269;28;20130;-60
2021/09/14 08:25:25;;;;;;;15.38;11.55;;;;;;;21.18;35.33;95469.81;4961936;28;20273;-60
2021/09/14 08:27:51;;;;;;;15.23;10.80;;;;;;;21.32;34.47;95460.31;4963466;28;20039;-60
2021/09/14 08:30:17;;;;;;;6.97;4.85;;;;;;;21.54;35.00;95464.88;4950148;28;20031;-60
2021/09/14 08:32:42;;;;;;;11.95;7.10;;;;;;;21.62;34.97;95469.03;4955476;28;20065;-60
2021/09/14 08:35:08;;;;;;;42.42;31.48;;;;;;;21.11;33.73;95462.69;4956759;28;20045;-60
2021/09/14 08:37:33;;;;;;;44.85;32.13;;;;;;;20.79;34.54;95468.72;4945199;28;20412;-60
2021/09/14 08:39:58;;;;;;;25.63;16.77;;;;;;;21.02;35.12;95466.06;4945832;28;20485;-60
2021/09/14 08:42:24;;;;;;;26.50;19.92;;;;;;;21.22;35.25;95455.53;4944700;28;20536;-60
2021/09/14 08:44:51;;;;;;;44.97;32.67;;;;;;;21.28;33.60;95458.34;4947979;28;20110;-60
2021/09/14 08:47:16;;;;;;;;;;;;;;;21.20;33.71;95462.25;4945161;28;20043;-60
2021/09/14 08:49:42;;;;;;;48.23;33.87;;;;;;;21.14;33.28;95461.34;4943401;28;19960;-60
2021/09/14 08:52:07;;;;;;;4.88;3.75;;;;;;;21.64;35.12;95459.59;4943984;28;20287;-60
2021/09/14 08:54:33;;;;;;;6.70;5.00;;;;;;;21.66;34.61;95459.34;4944683;28;20027;-60
2021/09/14 08:56:58;;;;;;;9.90;5.50;;;;;;;21.74;34.89;95468.88;4948722;28;20062;-60
2021/09/14 08:59:28;;;;;;;29.80;20.23;;;;;;;21.81;34.96;95466.81;4941895;28;20669;-60
2021/09/14 09:02:04;;;;;;;33.25;24.20;;;;;;;21.54;35.05;95461.34;4961325;28;20531;-60
2021/09/14 09:04:29;;;;;;;6.35;4.18;;;;;;;21.69;35.49;95471.56;4962343;28;20454;-60
2021/09/14 09:06:55;;;;;;;4.75;2.80;;;;;;;21.92;34.65;95473.19;4962658;28;20069;-60
2021/09/14 09:09:21;;;;;;;18.98;12.50;;;;;;;21.94;34.09;95475.63;4960631;28;20058;-60
2021/09/14 09:11:57;;;;;;;39.80;30.25;;;;;;;21.24;35.74;95471.50;4955328;28;20643;-60
2021/09/14 09:14:37;;;;;;;4.05;2.70;;;;;;;21.39;35.49;95476.34;4960217;28;20066;-60
2021/09/14 09:17:07;;;;;;;24.40;18.15;;;;;;;21.64;34.87;95480.44;4956834;28;20035;-60
2021/09/14 09:19:32;;;;;;;58.15;42.88;;;;;;;21.92;34.06;95480.50;4960639;28;20058;-60
2021/09/14 09:21:58;;;;;;;46.30;33.35;;;;;;;21.81;33.98;95476.81;4962899;28;20047;-60
2021/09/14 09:24:24;;;;;;;4.75;3.30;;;;;;;22.13;35.13;95485.03;4962090;28;20045;-61
2021/09/14 09:26:49;;;;;;;2.95;2.60;;;;;;;22.51;34.12;95489.72;4964502;28;20035;-61
2021/09/14 09:29:23;;;;;;;11.90;8.77;;;;;;;22.56;35.02;95491.72;4966352;28;20052;-61
2021/09/14 09:31:50;;;;;;;18.58;11.05;;;;;;;22.64;33.75;95496.66;4964686;28;20459;-61
2021/09/14 09:34:15;;;;;;;5.68;2.90;;;;;;;22.46;34.04;95489.66;4966208;28;20034;-61
2021/09/14 09:36:42;;;;;;;44.53;34.38;;;;;;;22.51;34.94;95485.09;4965967;28;20046;-61
2021/09/14 09:39:12;;;;;;;5.28;3.75;;;;;;;22.75;34.90;95484.81;4965802;28;20129;-61
2021/09/14 09:41:40;;;;;;;11.30;7.72;;;;;;;22.53;34.04;95476.75;4966301;28;20141;-61
2021/09/14 09:44:11;;;;;;;24.95;16.83;;;;;;;23.08;33.63;95471.16;4965521;28;20054;-61
2021/09/14 09:46:37;;;;;;;19.02;13.10;;;;;;;23.19;33.92;95468.53;4963801;28;20026;-61
2021/09/14 09:49:06;;;;;;;12.25;8.80;;;;;;;23.72;32.81;95475.84;4966056;28;20041;-61
2021/09/14 09:51:33;;;;;;;25.15;19.13;;;;;;;23.98;31.40;95474.03;4964716;28;20039;-61
2021/09/14 09:53:58;;;;;;;16.73;10.60;;;;;;;24.23;32.12;95469.72;4966325;28;20103;-61
2021/09/14 09:56:24;;;;;;;6.88;4.13;;;;;;;24.39;31.83;95475.19;4965541;28;20038;-61
2021/09/14 09:58:50;;;;;;;41.70;32.72;;;;;;;24.04;30.88;95469.44;4958679;28;20046;-61
2021/09/14 10:01:16;;;;;;;9.63;5.10;;;;;;;24.42;31.70;95478.22;4966413;28;20050;-61
2021/09/14 10:03:59;;;;;;;20.55;14.73;;;;;;;24.14;30.22;95469.44;4964596;28;20283;-61
2021/09/14 10:06:34;;;;;;;3.55;2.80;;;;;;;24.64;30.23;95471.66;4964909;28;20096;-61
2021/09/14 10:08:59;;;;;;;7.22;3.45;;;;;;;24.78;30.66;95473.84;4964259;28;20055;-61
2021/09/14 10:11:26;;;;;;;5.57;3.13;;;;;;;24.57;29.77;95473.84;4958578;28;20187;-61
2021/09/14 10:14:01;;;;;;;;;;;;;;;24.66;30.46;95474.13;4966105;28;20061;-61
2021/09/14 10:16:26;;;;;;;12.77;11.30;;;;;;;23.54;31.50;95478.75;4965716;28;19925;-61
2021/09/14 10:18:52;;;;;;;24.63;18.90;;;;;;;23.88;32.28;95482.97;4965181;28;20042;-61
2021/09/14 10:21:19;;;;;;;50.42;39.88;;;;;;;24.07;30.50;95482.50;4965244;28;20049;-61
2021/09/14 10:23:44;;;;;;;17.02;10.32;;;;;;;23.93;31.44;95480.25;4965654;28;20042;-61
2021/09/14 10:26:11;;;;;;;17.00;13.27;;;;;;;22.32;34.56;95490.09;4948589;28;20476;-61
2021/09/14 10:28:44;;;;;;;7.75;5.55;;;;;;;23.61;32.17;95483.13;4965100;28;20034;-61
2021/09/14 10:31:20;;;;;;;6.15;4.20;;;;;;;22.47;34.10;95486.69;4964315;28;20057;-61
2021/09/14 10:33:45;;;;;;;37.33;32.25;;;;;;;23.33;31.77;95480.56;4966035;28;20076;-61
2021/09/14 10:36:14;;;;;;;4.00;3.30;;;;;;;24.45;30.86;95485.81;4965588;28;20043;-61
2021/09/14 10:38:49;;;;;;;15.10;12.00;;;;;;;24.61;30.48;95476.84;4965247;28;20547;-61
2021/09/14 10:41:15;;;;;;;24.73;18.95;;;;;;;24.76;29.76;95481.44;4966619;28;20516;-62
2021/09/14 10:43:41;;;;;;;33.27;26.83;;;;;;;24.74;29.21;95481.72;4965817;28;20039;-61
2021/09/14 10:46:07;;;;;;;35.47;27.20;;;;;;;24.91;30.07;95480.66;4960355;28;20368;-61
2021/09/14 10:48:33;;;;;;;17.23;14.67;;;;;;;24.91;29.55;95478.75;4964955;28;20035;-61
2021/09/14 10:51:12;;;;;;;33.38;28.65;;;;;;;24.84;29.52;95476.28;4965906;28;20070;-61
2021/09/14 10:53:38;;;;;;;10.85;7.35;;;;;;;25.92;29.49;95472.69;4965616;28;20416;-61
2021/09/14 10:56:03;;;;;;;9.20;7.27;;;;;;;25.98;28.73;95477.88;4965280;28;20066;-61
2021/09/14 10:58:38;;;;;;;2.77;2.50;;;;;;;25.71;29.35;95472.81;4960030;28;20085;-61
2021/09/14 11:01:04;;;;;;;8.32;5.63;;;;;;;25.90;29.43;95472.19;4969381;28;20030;-61
2021/09/14 11:03:29;;;;;;;19.83;15.67;;;;;;;25.90;28.51;95481.16;4968931;28;20038;-61
2021/09/14 11:05:55;;;;;;;4.73;2.83;;;;;;;25.08;29.21;95483.06;4968515;28;20086;-61
2021/09/14 11:08:24;;;;;;;6.47;5.07;;;;;;;25.18;30.13;95477.59;4968648;28;20397;-61
2021/09/14 11:10:50;;;;;;;3.40;2.67;;;;;;;25.07;29.72;95481.44;4968809;28;20354;-61
2021/09/14 11:13:23;;;;;;;4.00;2.80;;;;;;;26.23;28.31;95467.91;4968604;28;20057;-61
2021/09/14 11:15:58;;;;;;;9.80;6.63;;;;;;;25.94;29.35;95468.59;4982615;28;20104;-61
2021/09/14 11:18:25;;;;;;;2.95;2.65;;;;;;;26.44;27.48;95469.69;4967593;28;20121;-61
2021/09/14 11:20:51;;;;;;;3.45;2.85;;;;;;;26.83;27.98;95474.28;4967459;28;20452;-61
2021/09/14 11:23:24;;;;;;;3.85;2.65;;;;;;;25.30;29.54;95468.31;4966042;28;20047;-61
2021/09/14 11:25:51;;;;;;;3.40;2.70;;;;;;;26.55;28.20;95470.41;4967367;28;20072;-61
2021/09/14 11:28:17;;;;;;;;;;;;;;;27.07;28.35;95469.97;4950741;28;20488;-61
2021/09/14 11:30:55;;;;;;;3.90;2.60;;;;;;;27.61;26.89;95459.00;4968261;28;19913;-61
2021/09/14 11:33:22;;;;;;;3.72;2.70;;;;;;;27.47;26.92;95464.38;4961396;28;20152;-61
2021/09/14 11:35:47;;;;;;;4.45;2.90;;;;;;;27.60;26.65;95460.91;4944421;28;20039;-61
2021/09/14 11:38:14;;;;;;;6.80;4.03;;;;;;;27.90;27.05;95466.28;4963073;28;20042;-61
2021/09/14 11:40:54;;;;;;;4.70;2.72;;;;;;;26.64;27.00;95471.44;4967906;28;20169;-61
2021/09/14 11:43:27;;;;;;;5.85;2.47;;;;;;;25.96;28.49;95477.31;4949950;28;20054;-61
2021/09/14 11:45:53;;;;;;;2.92;2.63;;;;;;;26.75;28.60;95472.97;4966318;28;20038;-61
2021/09/14 11:48:20;;;;;;;3.43;2.40;;;;;;;26.69;27.99;95485.06;4966504;28;20035;-61
2021/09/14 11:50:45;;;;;;;11.52;9.13;;;;;;;27.01;26.44;95478.22;4967520;28;20030;-61
2021/09/14 11:53:18;;;;;;;11.03;9.17;;;;;;;27.28;26.83;95480.69;4965726;28;20824;-61
2021/09/14 11:55:48;;;;;;;6.18;4.25;;;;;;;27.73;26.05;95475.81;4959099;28;20058;-61
2021/09/14 11:58:14;;;;;;;19.98;16.40;;;;;;;27.09;26.47;95481.41;4956326;28;20038;-61
2021/09/14 12:00:40;;;;;;;;;;;;;;;27.76;26.18;95477.97;4967468;28;20043;-61
2021/09/14 12:03:06;;;;;;;40.05;30.92;;;;;;;27.56;25.24;95478.22;4965750;28;20114;-61
2021/09/14 12:05:32;;;;;;;11.50;6.63;;;;;;;27.85;25.57;95482.78;4968075;28;20040;-61
2021/09/14 12:07:59;;;;;;;9.80;7.35;;;;;;;27.85;25.29;95474.56;4965115;28;20083;-60
2021/09/14 12:10:24;;;;;;;;;;;;;;;28.26;25.49;95476.75;4966166;28;20447;-60
2021/09/14 12:12:51;;;;;;;3.17;2.65;;;;;;;28.97;23.87;95469.63;4966450;28;19937;-60
2021/09/14 12:15:18;;;;;;;5.38;4.15;;;;;;;27.28;25.25;95486.16;4955208;28;20070;-60
2021/09/14 12:17:43;;;;;;;29.50;21.40;;;;;;;27.76;25.16;95477.97;4964798;28;20394;-60
2021/09/14 12:20:09;;;;;;;5.50;3.43;;;;;;;27.86;25.35;95478.94;4964930;28;20047;-60
2021/09/14 12:22:34;;;;;;;12.55;9.35;;;;;;;28.32;24.94;95474.75;4966300;28;20039;-60
2021/09/14 12:25:01;;;;;;;8.02;4.97;;;;;;;29.03;24.40;95479.34;4967435;28;20550;-60
2021/09/14 12:27:29;;;;;;;13.50;9.00;;;;;;;28.58;25.11;95487.22;4966381;28;20050;-60